Time;durP1;ratioP1;P1;durP2;ratioP2;P2;SDS_P1;SDS_P2;PMS_P1;PMS_P2;Temp;Humidity;BMP_temperature;BMP_pressure;BME280_temperature;BME280_humidity;BME280_pressure;Samples;Min_cycle;Max_cycle;Signal;HPM_P1;HPM_P2
2023/03/25 00:00:48;;;;;;;0.90;0.90;;;;;;;;;;5000076;28;20025;-74
2023/03/25 00:03:14;;;;;;;0.73;0.60;;;;;;;;;;5012934;28;20034;-74
2023/03/25 00:05:40;;;;;;;0.50;0.50;;;;;;;;;;5026578;28;20045;-73
2023/03/25 00:08:06;;;;;;;0.47;0.47;;;;;;;;;;5028088;28;20037;-73
2023/03/25 00:10:32;;;;;;;0.40;0.40;;;;;;;;;;5023508;28;20064;-73
2023/03/25 00:13:03;;;;;;;0.52;0.52;;;;;;;;;;5024749;28;20022;-74
2023/03/25 00:15:32;;;;;;;3.35;1.10;;;;;;;;;;5027490;28;20108;-73
2023/03/25 00:17:58;;;;;;;1.08;0.70;;;;;;;;;;5012456;28;20088;-74
2023/03/25 00:20:24;;;;;;;0.75;0.50;;;;;;;;;;5023587;28;20388;-73
2023/03/25 00:22:50;;;;;;;0.63;0.63;;;;;;;;;;5027698;28;20025;-73
2023/03/25 00:25:19;;;;;;;2.58;0.60;;;;;;;;;;5026579;28;20033;-74
2023/03/25 00:27:46;;;;;;;0.50;0.50;;;;;;;;;;5023067;28;20507;-73
2023/03/25 00:30:13;;;;;;;0.77;0.70;;;;;;;;;;5014819;28;20552;-73
2023/03/25 00:32:39;;;;;;;1.08;0.70;;;;;;;;;;5025533;28;20129;-74
2023/03/25 00:35:05;;;;;;;0.68;0.65;;;;;;;;;;5021309;28;20080;-74
2023/03/25 00:37:31;;;;;;;2.03;0.77;;;;;;;;;;5021843;28;20530;-73
2023/03/25 00:39:57;;;;;;;1.15;0.68;;;;;;;;;;5026930;28;20393;-73
2023/03/25 00:42:26;;;;;;;0.68;0.68;;;;;;;;;;5019765;28;20104;-74
2023/03/25 00:44:52;;;;;;;1.42;0.80;;;;;;;;;;5025860;28;20147;-73
2023/03/25 00:47:20;;;;;;;0.60;0.60;;;;;;;;;;5023964;28;20061;-73
2023/03/25 00:49:46;;;;;;;0.60;0.60;;;;;;;;;;5024435;28;20026;-74
2023/03/25 00:52:13;;;;;;;0.50;0.50;;;;;;;;;;5023332;28;20528;-74
2023/03/25 00:54:39;;;;;;;0.70;0.70;;;;;;;;;;5016801;28;20487;-73
2023/03/25 00:57:05;;;;;;;0.73;0.65;;;;;;;;;;5023245;28;20036;-73
2023/03/25 00:59:31;;;;;;;0.98;0.57;;;;;;;;;;5023990;28;20414;-74
2023/03/25 01:01:57;;;;;;;0.70;0.60;;;;;;;;;;5015591;28;20030;-73
2023/03/25 01:04:23;;;;;;;0.40;0.40;;;;;;;;;;5014379;28;20046;-74
2023/03/25 01:06:52;;;;;;;0.55;0.55;;;;;;;;;;5024679;28;20068;-73
2023/03/25 01:09:18;;;;;;;0.55;0.55;;;;;;;;;;5013136;28;20412;-74
2023/03/25 01:11:45;;;;;;;0.50;0.50;;;;;;;;;;5022644;28;20026;-74
2023/03/25 01:14:13;;;;;;;2.05;1.08;;;;;;;;;;5021519;28;20388;-74
2023/03/25 01:16:39;;;;;;;1.98;1.00;;;;;;;;;;5018401;28;20030;-73
2023/03/25 01:19:05;;;;;;;0.50;0.40;;;;;;;;;;5017813;28;20036;-74
2023/03/25 01:21:34;;;;;;;0.75;0.60;;;;;;;;;;5023639;28;20030;-73
2023/03/25 01:23:59;;;;;;;0.90;0.70;;;;;;;;;;5020021;28;20772;-74
2023/03/25 01:26:26;;;;;;;0.50;0.50;;;;;;;;;;5024210;28;20026;-73
2023/03/25 01:28:52;;;;;;;1.60;0.88;;;;;;;;;;5009204;28;20030;-74
2023/03/25 01:31:21;;;;;;;0.57;0.50;;;;;;;;;;5027102;28;20044;-73
2023/03/25 01:33:47;;;;;;;0.40;0.40;;;;;;;;;;5027501;28;20045;-73
2023/03/25 01:36:13;;;;;;;0.50;0.50;;;;;;;;;;5025384;28;20056;-74
2023/03/25 01:38:40;;;;;;;2.42;1.00;;;;;;;;;;5027573;28;20056;-74
2023/03/25 01:41:07;;;;;;;0.85;0.50;;;;;;;;;;5028015;28;20051;-73
2023/03/25 01:43:33;;;;;;;0.40;0.40;;;;;;;;;;5026023;28;20059;-73
2023/03/25 01:45:59;;;;;;;0.47;0.47;;;;;;;;;;5026908;28;20056;-73
2023/03/25 01:48:31;;;;;;;1.25;0.73;;;;;;;;;;5025632;28;20113;-73
2023/03/25 01:51:00;;;;;;;1.17;0.65;;;;;;;;;;5025624;28;20029;-73
2023/03/25 01:53:28;;;;;;;0.40;0.40;;;;;;;;;;5028662;28;20025;-74
2023/03/25 01:55:55;;;;;;;0.75;0.52;;;;;;;;;;5020948;28;20439;-74
2023/03/25 01:58:22;;;;;;;0.57;0.57;;;;;;;;;;5019681;28;20021;-73
2023/03/25 02:00:49;;;;;;;0.40;0.40;;;;;;;;;;5019637;28;20030;-74
2023/03/25 02:03:16;;;;;;;1.38;0.43;;;;;;;;;;5024157;28;20092;-74
2023/03/25 02:06:02;;;;;;;1.02;0.75;;;;;;;;;;5019903;28;20049;-73
2023/03/25 02:08:31;;;;;;;0.30;0.30;;;;;;;;;;5027666;28;20509;-74
2023/03/25 02:10:57;;;;;;;0.40;0.40;;;;;;;;;;5021907;28;20036;-74
2023/03/25 02:13:23;;;;;;;0.50;0.50;;;;;;;;;;5014784;28;20392;-74
2023/03/25 02:15:50;;;;;;;0.47;0.47;;;;;;;;;;5026238;28;20116;-74
2023/03/25 02:18:29;;;;;;;0.50;0.50;;;;;;;;;;5010195;28;20053;-74
2023/03/25 02:21:11;;;;;;;0.40;0.40;;;;;;;;;;5023598;28;20042;-73
2023/03/25 02:23:48;;;;;;;0.30;0.30;;;;;;;;;;5025835;28;20025;-74
2023/03/25 02:26:35;;;;;;;0.70;0.50;;;;;;;;;;5026177;28;20352;-74
2023/03/25 02:29:06;;;;;;;0.60;0.60;;;;;;;;;;5024982;28;20025;-73
2023/03/25 02:31:37;;;;;;;0.73;0.50;;;;;;;;;;5021389;28;20053;-73
2023/03/25 02:34:11;;;;;;;0.98;0.60;;;;;;;;;;5023951;28;20472;-73
2023/03/25 02:36:37;;;;;;;0.50;0.50;;;;;;;;;;5025774;28;20017;-74
2023/03/25 02:39:12;;;;;;;1.05;0.68;;;;;;;;;;5023384;28;20025;-74
2023/03/25 02:41:45;;;;;;;0.80;0.40;;;;;;;;;;5020228;28;20029;-74
2023/03/25 02:44:32;;;;;;;0.80;0.80;;;;;;;;;;5019396;28;20108;-73
2023/03/25 02:47:01;;;;;;;0.68;0.50;;;;;;;;;;5016272;28;20099;-75
2023/03/25 02:49:29;;;;;;;0.75;0.30;;;;;;;;;;5025273;28;20088;-73
2023/03/25 02:51:58;;;;;;;0.28;0.28;;;;;;;;;;5022424;28;20033;-74
2023/03/25 02:54:25;;;;;;;0.50;0.50;;;;;;;;;;5026845;28;20040;-74
2023/03/25 02:56:56;;;;;;;0.38;0.38;;;;;;;;;;5026920;28;20041;-74
2023/03/25 02:59:23;;;;;;;0.40;0.40;;;;;;;;;;5024964;28;20040;-74
2023/03/25 03:01:50;;;;;;;0.50;0.50;;;;;;;;;;5026552;28;20099;-74
2023/03/25 03:04:16;;;;;;;0.40;0.40;;;;;;;;;;5022464;28;20103;-74
2023/03/25 03:06:42;;;;;;;1.10;0.40;;;;;;;;;;5018735;28;20463;-74
2023/03/25 03:09:21;;;;;;;1.25;0.45;;;;;;;;;;5021976;28;20116;-73
2023/03/25 03:11:59;;;;;;;0.38;0.38;;;;;;;;;;5018788;28;20480;-73
2023/03/25 03:14:37;;;;;;;2.55;0.80;;;;;;;;;;5018099;28;20049;-74
2023/03/25 03:17:17;;;;;;;0.40;0.40;;;;;;;;;;5027462;28;20033;-74
2023/03/25 03:19:49;;;;;;;0.30;0.30;;;;;;;;;;5020001;28;20030;-74
2023/03/25 03:22:24;;;;;;;0.85;0.50;;;;;;;;;;5026080;28;20041;-73
2023/03/25 03:24:53;;;;;;;0.30;0.30;;;;;;;;;;5021237;28;20329;-73
2023/03/25 03:27:28;;;;;;;0.93;0.70;;;;;;;;;;5011910;28;20025;-74
2023/03/25 03:30:03;;;;;;;0.68;0.50;;;;;;;;;;5019881;28;20060;-74
2023/03/25 03:32:33;;;;;;;1.02;0.47;;;;;;;;;;5024193;28;20031;-74
2023/03/25 03:35:01;;;;;;;0.40;0.40;;;;;;;;;;5020124;28;20727;-74
2023/03/25 03:37:32;;;;;;;0.55;0.50;;;;;;;;;;5018196;28;20112;-74
2023/03/25 03:39:58;;;;;;;0.30;0.30;;;;;;;;;;5030038;28;20057;-74
2023/03/25 03:42:27;;;;;;;0.20;0.20;;;;;;;;;;5021493;28;20073;-75
2023/03/25 03:44:56;;;;;;;0.98;0.55;;;;;;;;;;5021577;28;20026;-74
2023/03/25 03:47:25;;;;;;;0.65;0.60;;;;;;;;;;5015996;28;20030;-74
2023/03/25 03:49:53;;;;;;;1.02;0.38;;;;;;;;;;5015721;28;20024;-74
2023/03/25 03:52:25;;;;;;;0.50;0.50;;;;;;;;;;5019972;28;20633;-74
2023/03/25 03:54:54;;;;;;;0.20;0.20;;;;;;;;;;5017964;28;20024;-73
2023/03/25 03:57:26;;;;;;;2.03;0.55;;;;;;;;;;5015155;28;20044;-74
2023/03/25 03:59:58;;;;;;;0.50;0.50;;;;;;;;;;5022485;28;20514;-74
2023/03/25 04:02:33;;;;;;;1.23;0.70;;;;;;;;;;5024417;28;20033;-74
2023/03/25 04:04:59;;;;;;;0.40;0.40;;;;;;;;;;5023038;28;20052;-74
2023/03/25 04:07:37;;;;;;;2.15;0.75;;;;;;;;;;5025963;28;20391;-75
2023/03/25 04:10:20;;;;;;;1.15;0.60;;;;;;;;;;5018532;28;20026;-75
2023/03/25 04:12:51;;;;;;;0.20;0.20;;;;;;;;;;5025104;28;20366;-75
2023/03/25 04:15:17;;;;;;;0.40;0.40;;;;;;;;;;5022066;28;20110;-75
2023/03/25 04:17:43;;;;;;;0.40;0.40;;;;;;;;;;5024447;28;20100;-75
2023/03/25 04:20:13;;;;;;;0.28;0.25;;;;;;;;;;5018845;28;20499;-75
2023/03/25 04:22:44;;;;;;;0.40;0.40;;;;;;;;;;5022435;28;20025;-75
2023/03/25 04:25:10;;;;;;;0.25;0.25;;;;;;;;;;5025133;28;20037;-75
2023/03/25 04:27:36;;;;;;;0.90;0.45;;;;;;;;;;5013287;28;20377;-75
2023/03/25 04:30:03;;;;;;;0.32;0.30;;;;;;;;;;5018548;28;20052;-75
2023/03/25 04:32:30;;;;;;;1.10;0.40;;;;;;;;;;5017889;28;20029;-75
2023/03/25 04:34:56;;;;;;;0.82;0.52;;;;;;;;;;5020962;28;20048;-75
2023/03/25 04:37:26;;;;;;;0.73;0.73;;;;;;;;;;5012182;28;20084;-75
2023/03/25 04:39:58;;;;;;;0.20;0.20;;;;;;;;;;5024350;28;20084;-74
2023/03/25 04:42:31;;;;;;;0.30;0.25;;;;;;;;;;5020381;28;20055;-75
2023/03/25 04:44:57;;;;;;;0.28;0.28;;;;;;;;;;5024636;28;20034;-74
2023/03/25 04:47:24;;;;;;;0.20;0.20;;;;;;;;;;5016690;28;20040;-74
2023/03/25 04:49:50;;;;;;;1.10;0.60;;;;;;;;;;5026918;28;20468;-74
2023/03/25 04:52:16;;;;;;;0.38;0.38;;;;;;;;;;5023484;28;20030;-74
2023/03/25 04:54:43;;;;;;;1.05;0.40;;;;;;;;;;5020726;28;20021;-75
2023/03/25 04:57:09;;;;;;;0.20;0.20;;;;;;;;;;5014812;28;20444;-74
2023/03/25 04:59:35;;;;;;;0.32;0.20;;;;;;;;;;5025693;28;20033;-74
2023/03/25 05:02:04;;;;;;;0.40;0.40;;;;;;;;;;5027910;28;20112;-75
2023/03/25 05:04:30;;;;;;;0.80;0.40;;;;;;;;;;5029707;28;20037;-74
2023/03/25 05:06:56;;;;;;;0.32;0.30;;;;;;;;;;5018753;28;20026;-74
2023/03/25 05:09:22;;;;;;;0.30;0.30;;;;;;;;;;5029515;28;20029;-74
2023/03/25 05:11:49;;;;;;;0.22;0.22;;;;;;;;;;5027033;28;20124;-73
2023/03/25 05:14:16;;;;;;;0.40;0.40;;;;;;;;;;5029052;28;20060;-73
2023/03/25 05:16:43;;;;;;;0.30;0.30;;;;;;;;;;5019352;28;20065;-74
2023/03/25 05:19:09;;;;;;;0.40;0.40;;;;;;;;;;5024372;28;20148;-73
2023/03/25 05:21:36;;;;;;;0.25;0.25;;;;;;;;;;5027777;28;20559;-73
2023/03/25 05:24:03;;;;;;;0.38;0.38;;;;;;;;;;5026453;28;20036;-74
2023/03/25 05:26:33;;;;;;;0.20;0.20;;;;;;;;;;5023705;28;20122;-74
2023/03/25 05:29:00;;;;;;;0.10;0.10;;;;;;;;;;5016201;28;20495;-74
2023/03/25 05:31:26;;;;;;;0.25;0.25;;;;;;;;;;5019084;28;20060;-74
2023/03/25 05:33:53;;;;;;;0.30;0.30;;;;;;;;;;5024488;28;20026;-74
2023/03/25 05:36:20;;;;;;;0.22;0.22;;;;;;;;;;5021954;28;20033;-74
2023/03/25 05:38:47;;;;;;;0.20;0.20;;;;;;;;;;5025045;28;20025;-75
2023/03/25 05:41:15;;;;;;;0.40;0.40;;;;;;;;;;5028195;28;20033;-75
2023/03/25 05:43:46;;;;;;;0.45;0.40;;;;;;;;;;5022703;28;20042;-73
2023/03/25 05:46:12;;;;;;;0.30;0.30;;;;;;;;;;5025643;28;20061;-73
2023/03/25 05:48:40;;;;;;;0.82;0.43;;;;;;;;;;5025788;28;20029;-73
2023/03/25 05:51:06;;;;;;;0.45;0.30;;;;;;;;;;5023620;28;20021;-73
2023/03/25 05:53:32;;;;;;;0.30;0.30;;;;;;;;;;5026776;28;20112;-73
2023/03/25 05:56:00;;;;;;;0.25;0.25;;;;;;;;;;5023903;28;20092;-73
2023/03/25 05:58:26;;;;;;;0.15;0.15;;;;;;;;;;5020909;28;20029;-73
2023/03/25 06:00:52;;;;;;;0.50;0.30;;;;;;;;;;5014848;28;20029;-72
2023/03/25 06:03:19;;;;;;;0.43;0.40;;;;;;;;;;5026023;28;20037;-73
2023/03/25 06:05:47;;;;;;;0.20;0.20;;;;;;;;;;5024424;28;20609;-73
2023/03/25 06:08:13;;;;;;;1.10;0.35;;;;;;;;;;5025340;28;20160;-73
2023/03/25 06:10:38;;;;;;;0.15;0.15;;;;;;;;;;5020677;28;20036;-73
2023/03/25 06:13:05;;;;;;;2.60;0.47;;;;;;;;;;5023067;28;20022;-73
2023/03/25 06:15:37;;;;;;;0.20;0.20;;;;;;;;;;5025274;28;20028;-73
2023/03/25 06:18:04;;;;;;;0.22;0.13;;;;;;;;;;5027148;28;20049;-73
2023/03/25 06:20:30;;;;;;;0.28;0.28;;;;;;;;;;5018822;28;20033;-73
2023/03/25 06:22:55;;;;;;;0.30;0.30;;;;;;;;;;5022095;28;20089;-73
2023/03/25 06:25:22;;;;;;;0.47;0.30;;;;;;;;;;5025774;28;20018;-72
2023/03/25 06:27:49;;;;;;;0.70;0.28;;;;;;;;;;5027775;28;20025;-73
2023/03/25 06:30:16;;;;;;;0.32;0.30;;;;;;;;;;5024444;28;20033;-73
2023/03/25 06:32:42;;;;;;;0.30;0.30;;;;;;;;;;5009624;28;20021;-73
2023/03/25 06:35:09;;;;;;;1.02;0.25;;;;;;;;;;5024171;28;20021;-73
2023/03/25 06:37:36;;;;;;;0.20;0.20;;;;;;;;;;5026091;28;20037;-73
2023/03/25 06:40:04;;;;;;;0.20;0.20;;;;;;;;;;5026781;28;20029;-73
2023/03/25 06:42:32;;;;;;;0.55;0.38;;;;;;;;;;5013088;28;20045;-75
2023/03/25 06:44:58;;;;;;;0.08;0.08;;;;;;;;;;5025985;28;20052;-75
2023/03/25 06:47:24;;;;;;;0.55;0.50;;;;;;;;;;5023313;28;20066;-74
2023/03/25 06:49:50;;;;;;;0.32;0.22;;;;;;;;;;5016210;28;20037;-73
2023/03/25 06:52:17;;;;;;;3.20;0.40;;;;;;;;;;5028558;28;20052;-75
2023/03/25 06:54:43;;;;;;;0.50;0.30;;;;;;;;;;5019339;28;20457;-74
2023/03/25 06:57:09;;;;;;;0.10;0.10;;;;;;;;;;5026884;28;20030;-73
2023/03/25 06:59:35;;;;;;;0.13;0.13;;;;;;;;;;5027901;28;20048;-72
2023/03/25 07:02:01;;;;;;;0.20;0.20;;;;;;;;;;5023873;28;20030;-72
2023/03/25 07:04:27;;;;;;;0.50;0.40;;;;;;;;;;5023344;28;20037;-73
2023/03/25 07:06:53;;;;;;;0.10;0.10;;;;;;;;;;5025056;28;20040;-73
2023/03/25 07:09:19;;;;;;;0.20;0.20;;;;;;;;;;5016612;28;20025;-72
2023/03/25 07:11:45;;;;;;;0.43;0.35;;;;;;;;;;5028600;28;20040;-72
2023/03/25 07:14:11;;;;;;;0.40;0.30;;;;;;;;;;5025379;28;20071;-75
2023/03/25 07:16:36;;;;;;;0.25;0.20;;;;;;;;;;5018854;28;20051;-76
2023/03/25 07:19:03;;;;;;;0.55;0.55;;;;;;;;;;5026613;28;20029;-73
2023/03/25 07:21:29;;;;;;;0.98;0.38;;;;;;;;;;5018512;28;20064;-74
2023/03/25 07:23:55;;;;;;;0.05;0.05;;;;;;;;;;5011513;28;20030;-74
2023/03/25 07:26:23;;;;;;;0.30;0.30;;;;;;;;;;5024402;28;20041;-74
2023/03/25 07:28:49;;;;;;;0.43;0.22;;;;;;;;;;5023454;28;20048;-81
2023/03/25 07:31:15;;;;;;;2.40;0.43;;;;;;;;;;5013095;28;20384;-82
2023/03/25 07:33:42;;;;;;;0.20;0.20;;;;;;;;;;5019783;28;20029;-78
2023/03/25 07:36:10;;;;;;;0.68;0.40;;;;;;;;;;5027628;28;20065;-74
2023/03/25 07:38:36;;;;;;;0.38;0.35;;;;;;;;;;5014711;28;20038;-82
2023/03/25 07:41:11;;;;;;;0.22;0.22;;;;;;;;;;5019127;28;20396;-80
2023/03/25 07:43:38;;;;;;;0.43;0.30;;;;;;;;;;5023044;28;20044;-81
2023/03/25 07:46:04;;;;;;;0.63;0.45;;;;;;;;;;5023513;28;20029;-82
2023/03/25 07:48:30;;;;;;;0.93;0.30;;;;;;;;;;5021211;28;20038;-81
2023/03/25 07:50:56;;;;;;;2.53;0.25;;;;;;;;;;5020822;28;20252;-82
2023/03/25 07:53:22;;;;;;;0.22;0.22;;;;;;;;;;5013219;28;20688;-81
2023/03/25 07:55:51;;;;;;;0.20;0.20;;;;;;;;;;5013240;28;20033;-81
2023/03/25 07:58:18;;;;;;;0.28;0.28;;;;;;;;;;5024762;28;20981;-80
2023/03/25 08:00:44;;;;;;;0.20;0.20;;;;;;;;;;5024342;28;20168;-79
2023/03/25 08:03:13;;;;;;;0.45;0.32;;;;;;;;;;5025460;28;20042;-79
2023/03/25 08:05:45;;;;;;;0.63;0.52;;;;;;;;;;5022382;28;20098;-80
2023/03/25 08:08:11;;;;;;;1.38;0.40;;;;;;;;;;5014716;28;20025;-81
2023/03/25 08:10:37;;;;;;;0.40;0.40;;;;;;;;;;5023194;28;20494;-82
2023/03/25 08:13:03;;;;;;;0.40;0.40;;;;;;;;;;5021222;28;20391;-81
2023/03/25 08:15:29;;;;;;;2.20;0.45;;;;;;;;;;5017588;28;20041;-81
2023/03/25 08:17:56;;;;;;;2.03;0.30;;;;;;;;;;5013823;28;20404;-83
2023/03/25 08:20:22;;;;;;;0.55;0.10;;;;;;;;;;5024378;28;20460;-83
2023/03/25 08:22:48;;;;;;;0.82;0.30;;;;;;;;;;5022447;28;20032;-78
2023/03/25 08:25:14;;;;;;;0.55;0.40;;;;;;;;;;5026883;28;20028;-76
2023/03/25 08:27:40;;;;;;;0.20;0.20;;;;;;;;;;5024168;28;20029;-82
2023/03/25 08:30:09;;;;;;;0.75;0.28;;;;;;;;;;5030205;28;20120;-81
2023/03/25 08:32:37;;;;;;;6.93;0.47;;;;;;;;;;5022718;28;20017;-83
2023/03/25 08:35:04;;;;;;;0.20;0.20;;;;;;;;;;5026015;28;20017;-81
2023/03/25 08:37:34;;;;;;;0.28;0.28;;;;;;;;;;5020716;28;20037;-82
2023/03/25 08:40:00;;;;;;;0.40;0.40;;;;;;;;;;5027643;28;20040;-81
2023/03/25 08:42:26;;;;;;;0.30;0.30;;;;;;;;;;5032657;28;20048;-85
2023/03/25 08:44:52;;;;;;;0.77;0.30;;;;;;;;;;5023454;28;20029;-86
2023/03/25 08:47:18;;;;;;;0.75;0.75;;;;;;;;;;5024324;28;20037;-84
2023/03/25 08:49:44;;;;;;;2.88;0.50;;;;;;;;;;5026907;28;20014;-87
2023/03/25 08:52:10;;;;;;;2.05;0.20;;;;;;;;;;5023982;28;20031;-83
2023/03/25 08:54:36;;;;;;;0.20;0.20;;;;;;;;;;5020792;28;20034;-81
2023/03/25 08:57:02;;;;;;;1.65;0.73;;;;;;;;;;5015462;28;20153;-85
2023/03/25 08:59:28;;;;;;;0.28;0.28;;;;;;;;;;5030750;28;20203;-86
2023/03/25 09:01:54;;;;;;;0.40;0.40;;;;;;;;;;5018036;28;20029;-86
2023/03/25 09:04:20;;;;;;;0.43;0.20;;;;;;;;;;5024932;28;20029;-85
2023/03/25 09:06:48;;;;;;;0.30;0.25;;;;;;;;;;5024530;28;20061;-75
2023/03/25 09:09:14;;;;;;;0.10;0.10;;;;;;;;;;5021677;28;20048;-83
2023/03/25 09:11:40;;;;;;;0.30;0.30;;;;;;;;;;5021482;28;20122;-75
2023/03/25 09:14:06;;;;;;;2.38;0.50;;;;;;;;;;5017488;28;20014;-76
2023/03/25 09:16:33;;;;;;;0.20;0.20;;;;;;;;;;5025633;28;20500;-79
2023/03/25 09:18:59;;;;;;;2.63;0.30;;;;;;;;;;5019649;28;20043;-74
2023/03/25 09:21:25;;;;;;;0.80;0.20;;;;;;;;;;5017764;28;20064;-74
2023/03/25 09:23:57;;;;;;;0.43;0.20;;;;;;;;;;5023218;28;20396;-74
2023/03/25 09:26:25;;;;;;;0.47;0.40;;;;;;;;;;5009016;28;20097;-74
2023/03/25 09:28:51;;;;;;;0.47;0.30;;;;;;;;;;5001237;28;20031;-74
2023/03/25 09:31:17;;;;;;;0.30;0.30;;;;;;;;;;5018493;28;20112;-74
2023/03/25 09:33:43;;;;;;;0.90;0.57;;;;;;;;;;5012914;28;20455;-74
2023/03/25 09:36:10;;;;;;;0.88;0.22;;;;;;;;;;5019915;28;20057;-74
2023/03/25 09:38:36;;;;;;;0.17;0.17;;;;;;;;;;5029717;28;20086;-74
2023/03/25 09:41:05;;;;;;;0.22;0.22;;;;;;;;;;5022316;28;20489;-73
2023/03/25 09:43:39;;;;;;;0.60;0.40;;;;;;;;;;4975057;28;1022899;-74
2023/03/25 09:46:06;;;;;;;0.40;0.40;;;;;;;;;;5021818;28;20057;-73
2023/03/25 09:48:39;;;;;;;0.20;0.20;;;;;;;;;;5027226;28;20029;-74
2023/03/25 09:51:10;;;;;;;0.10;0.10;;;;;;;;;;5017614;28;20029;-74
2023/03/25 09:53:42;;;;;;;0.52;0.43;;;;;;;;;;5012255;28;20032;-73
2023/03/25 09:56:13;;;;;;;0.40;0.40;;;;;;;;;;5010178;28;20113;-74
2023/03/25 09:58:46;;;;;;;0.10;0.10;;;;;;;;;;5022046;28;20034;-73
2023/03/25 10:01:33;;;;;;;0.20;0.20;;;;;;;;;;5020914;28;20470;-74
2023/03/25 10:04:18;;;;;;;0.20;0.20;;;;;;;;;;5022039;28;20512;-74
2023/03/25 10:06:51;;;;;;;0.30;0.30;;;;;;;;;;5016718;28;20022;-74
2023/03/25 10:09:17;;;;;;;0.80;0.40;;;;;;;;;;5024223;28;20606;-80
2023/03/25 10:11:49;;;;;;;1.27;0.25;;;;;;;;;;5019541;28;20030;-84
2023/03/25 10:14:20;;;;;;;1.02;0.35;;;;;;;;;;5024330;28;20022;-78
2023/03/25 10:16:46;;;;;;;;;;;;;;;;;;5011491;28;20046;-80
2023/03/25 10:19:31;;;;;;;0.40;0.28;;;;;;;;;;5024420;28;20012;-76
2023/03/25 10:22:00;;;;;;;1.05;0.52;;;;;;;;;;5024387;28;20057;-80
2023/03/25 10:24:30;;;;;;;3.60;1.13;;;;;;;;;;5035684;28;20069;-73
2023/03/25 10:27:14;;;;;;;0.82;0.40;;;;;;;;;;5026873;28;20036;-74
2023/03/25 10:29:43;;;;;;;0.30;0.30;;;;;;;;;;5027868;28;20037;-75
2023/03/25 10:32:23;;;;;;;0.30;0.30;;;;;;;;;;5017339;28;20508;-75
2023/03/25 10:34:51;;;;;;;0.30;0.30;;;;;;;;;;5029818;28;20040;-79
2023/03/25 10:37:32;;;;;;;7.95;1.60;;;;;;;;;;5023028;28;20523;-73
2023/03/25 10:40:18;;;;;;;0.38;0.38;;;;;;;;;;5027203;28;20507;-73
2023/03/25 10:43:04;;;;;;;6.57;0.55;;;;;;;;;;5007418;28;20751;-72
2023/03/25 10:45:30;;;;;;;6.93;0.22;;;;;;;;;;4988945;28;20035;-72
2023/03/25 10:48:01;;;;;;;0.30;0.30;;;;;;;;;;5007446;28;20030;-73
2023/03/25 10:50:27;;;;;;;0.60;0.57;;;;;;;;;;5002329;28;20028;-74
2023/03/25 10:52:55;;;;;;;0.20;0.20;;;;;;;;;;4999806;28;20126;-74
2023/03/25 10:55:25;;;;;;;0.80;0.30;;;;;;;;;;5002285;28;20050;-74
2023/03/25 10:57:52;;;;;;;1.55;0.77;;;;;;;;;;5004695;28;20034;-74
2023/03/25 11:00:18;;;;;;;2.13;0.30;;;;;;;;;;4995968;28;20033;-73
2023/03/25 11:02:48;;;;;;;0.57;0.38;;;;;;;;;;5009077;28;20111;-75
2023/03/25 11:05:17;;;;;;;0.43;0.40;;;;;;;;;;5008476;28;20045;-74
2023/03/25 11:07:45;;;;;;;0.50;0.50;;;;;;;;;;5007630;28;20049;-75
2023/03/25 11:10:11;;;;;;;0.30;0.30;;;;;;;;;;4991187;28;20030;-76
2023/03/25 11:12:38;;;;;;;0.63;0.30;;;;;;;;;;4989956;28;20031;-75
2023/03/25 11:15:04;;;;;;;0.30;0.30;;;;;;;;;;4989175;28;20026;-76
2023/03/25 11:17:32;;;;;;;1.65;0.32;;;;;;;;;;4995158;28;20508;-76
2023/03/25 11:20:06;;;;;;;3.42;0.30;;;;;;;;;;5008657;28;20033;-76
2023/03/25 11:22:35;;;;;;;0.65;0.52;;;;;;;;;;5009318;28;20030;-76
2023/03/25 11:25:22;;;;;;;0.17;0.17;;;;;;;;;;5008478;28;20685;-75
2023/03/25 11:27:53;;;;;;;0.40;0.32;;;;;;;;;;4992680;28;20515;-76
2023/03/25 11:30:21;;;;;;;0.30;0.30;;;;;;;;;;5006037;28;20037;-76
2023/03/25 11:32:57;;;;;;;1.58;0.65;;;;;;;;;;5008772;28;20032;-76
2023/03/25 11:35:25;;;;;;;0.22;0.22;;;;;;;;;;5008405;28;20528;-76
2023/03/25 11:38:01;;;;;;;0.55;0.52;;;;;;;;;;5008668;28;20034;-79
2023/03/25 11:40:28;;;;;;;3.05;0.70;;;;;;;;;;4998506;28;20476;-77
2023/03/25 11:42:56;;;;;;;0.50;0.28;;;;;;;;;;5015555;28;20050;-79
2023/03/25 11:45:33;;;;;;;0.30;0.30;;;;;;;;;;5025223;28;20065;-79
2023/03/25 11:48:00;;;;;;;1.85;0.55;;;;;;;;;;5017686;28;20057;-76
2023/03/25 11:50:27;;;;;;;1.95;0.70;;;;;;;;;;5026143;28;20028;-76
2023/03/25 11:52:55;;;;;;;0.20;0.20;;;;;;;;;;5024640;28;20384;-77
2023/03/25 11:55:32;;;;;;;0.30;0.30;;;;;;;;;;5023039;28;20026;-76
2023/03/25 11:57:59;;;;;;;0.60;0.60;;;;;;;;;;5022841;28;20480;-76
2023/03/25 12:00:26;;;;;;;0.98;0.40;;;;;;;;;;5021893;28;20034;-76
2023/03/25 12:02:59;;;;;;;0.65;0.60;;;;;;;;;;5019706;28;20026;-76
2023/03/25 12:05:25;;;;;;;0.47;0.47;;;;;;;;;;5023368;28;20033;-77
2023/03/25 12:07:59;;;;;;;1.63;0.50;;;;;;;;;;5027089;28;20020;-76
2023/03/25 12:10:31;;;;;;;2.05;0.45;;;;;;;;;;5007779;28;20022;-76
2023/03/25 12:13:08;;;;;;;0.40;0.40;;;;;;;;;;5009549;28;20061;-76
2023/03/25 12:15:41;;;;;;;1.83;0.65;;;;;;;;;;5027072;28;20048;-76
2023/03/25 12:18:07;;;;;;;1.27;0.70;;;;;;;;;;5027709;28;20033;-76
2023/03/25 12:20:35;;;;;;;0.32;0.32;;;;;;;;;;5026772;28;20026;-75
2023/03/25 12:23:03;;;;;;;0.88;0.70;;;;;;;;;;5020548;28;20087;-76
2023/03/25 12:25:34;;;;;;;1.85;0.50;;;;;;;;;;5025316;28;20121;-76
2023/03/25 12:28:07;;;;;;;0.85;0.57;;;;;;;;;;5020711;28;20312;-76
2023/03/25 12:30:54;;;;;;;1.00;0.50;;;;;;;;;;5015404;28;20034;-76
2023/03/25 12:33:29;;;;;;;0.43;0.40;;;;;;;;;;5027213;28;20056;-76
2023/03/25 12:35:55;;;;;;;2.08;0.43;;;;;;;;;;5025183;28;20095;-76
2023/03/25 12:38:42;;;;;;;2.33;0.50;;;;;;;;;;5026810;28;20025;-76
2023/03/25 12:41:13;;;;;;;3.92;0.55;;;;;;;;;;5023405;28;20044;-76
2023/03/25 12:43:57;;;;;;;0.50;0.50;;;;;;;;;;4999714;28;20054;-76
2023/03/25 12:46:35;;;;;;;0.40;0.40;;;;;;;;;;5001412;28;20113;-76
2023/03/25 12:49:07;;;;;;;1.00;0.52;;;;;;;;;;5002797;28;20029;-75
2023/03/25 12:51:47;;;;;;;0.40;0.40;;;;;;;;;;5006195;28;20198;-76
2023/03/25 12:54:16;;;;;;;0.45;0.40;;;;;;;;;;4999206;28;20109;-76
2023/03/25 12:57:00;;;;;;;0.90;0.28;;;;;;;;;;5006643;28;20037;-76
2023/03/25 12:59:26;;;;;;;1.15;0.50;;;;;;;;;;5006295;28;20100;-76
2023/03/25 13:01:55;;;;;;;0.38;0.38;;;;;;;;;;5007410;28;20424;-76
2023/03/25 13:04:51;;;;;;;1.00;0.35;;;;;;;;;;5000070;28;20111;-76
2023/03/25 13:07:30;;;;;;;0.80;0.60;;;;;;;;;;4986246;28;20031;-76
2023/03/25 13:10:05;;;;;;;0.82;0.40;;;;;;;;;;5000907;28;20032;-75
2023/03/25 13:12:38;;;;;;;0.93;0.75;;;;;;;;;;5005418;28;20026;-76
2023/03/25 13:15:11;;;;;;;0.40;0.40;;;;;;;;;;5011064;28;20072;-76
2023/03/25 13:17:40;;;;;;;1.23;0.80;;;;;;;;;;5010891;28;20033;-76
2023/03/25 13:20:09;;;;;;;1.10;0.47;;;;;;;;;;5010486;28;20022;-76
2023/03/25 13:22:38;;;;;;;0.80;0.70;;;;;;;;;;5009945;28;20048;-76
2023/03/25 13:25:07;;;;;;;1.10;0.50;;;;;;;;;;5010654;28;20033;-76
2023/03/25 13:27:35;;;;;;;0.38;0.38;;;;;;;;;;5009468;28;20030;-76
2023/03/25 13:30:02;;;;;;;0.90;0.45;;;;;;;;;;5010787;28;20572;-76
2023/03/25 13:32:49;;;;;;;1.90;0.47;;;;;;;;;;5010244;28;20373;-77
2023/03/25 13:35:36;;;;;;;0.95;0.50;;;;;;;;;;5010735;28;20496;-77
2023/03/25 13:38:04;;;;;;;3.83;0.52;;;;;;;;;;5009537;28;20022;-76
2023/03/25 13:40:36;;;;;;;5.82;1.08;;;;;;;;;;5009408;28;20567;-77
2023/03/25 13:43:07;;;;;;;0.55;0.55;;;;;;;;;;4999928;28;20046;-77
2023/03/25 13:45:43;;;;;;;3.33;0.55;;;;;;;;;;5010476;28;20113;-75
2023/03/25 13:48:25;;;;;;;1.48;0.32;;;;;;;;;;5028615;28;20124;-76
2023/03/25 13:50:51;;;;;;;4.45;0.80;;;;;;;;;;5029670;28;20032;-76
2023/03/25 13:53:22;;;;;;;0.52;0.43;;;;;;;;;;5029385;28;20117;-75
2023/03/25 13:55:55;;;;;;;2.05;0.50;;;;;;;;;;5029534;28;20040;-76
2023/03/25 13:58:41;;;;;;;2.90;0.80;;;;;;;;;;5028503;28;20166;-75
2023/03/25 14:01:26;;;;;;;0.88;0.40;;;;;;;;;;5012723;28;20056;-76
2023/03/25 14:03:59;;;;;;;2.83;0.50;;;;;;;;;;5027266;28;20033;-76
2023/03/25 14:06:34;;;;;;;3.67;0.40;;;;;;;;;;5029477;28;20129;-76
2023/03/25 14:09:00;;;;;;;0.70;0.30;;;;;;;;;;5029763;28;20040;-76
2023/03/25 14:11:28;;;;;;;0.45;0.35;;;;;;;;;;5029330;28;20021;-77
2023/03/25 14:13:57;;;;;;;0.90;0.80;;;;;;;;;;5028238;28;20480;-76
2023/03/25 14:16:24;;;;;;;2.78;0.43;;;;;;;;;;5028951;28;20033;-75
2023/03/25 14:18:56;;;;;;;0.52;0.50;;;;;;;;;;5027035;28;20095;-76
2023/03/25 14:21:34;;;;;;;1.30;0.60;;;;;;;;;;5019944;28;20030;-76
2023/03/25 14:24:11;;;;;;;0.85;0.63;;;;;;;;;;5015381;28;20030;-76
2023/03/25 14:26:41;;;;;;;0.55;0.55;;;;;;;;;;5022220;28;20034;-76
2023/03/25 14:29:09;;;;;;;1.90;0.38;;;;;;;;;;5026132;28;20029;-77
2023/03/25 14:31:36;;;;;;;1.00;0.70;;;;;;;;;;5028609;28;20045;-77
2023/03/25 14:34:02;;;;;;;1.00;0.70;;;;;;;;;;5029539;28;20022;-77
2023/03/25 14:36:29;;;;;;;0.93;0.50;;;;;;;;;;5029377;28;20036;-77
2023/03/25 14:38:56;;;;;;;2.40;0.70;;;;;;;;;;5028268;28;20037;-77
2023/03/25 14:41:41;;;;;;;0.80;0.60;;;;;;;;;;5021712;28;20025;-77
2023/03/25 14:44:17;;;;;;;1.33;0.75;;;;;;;;;;5024737;28;20051;-77
2023/03/25 14:46:47;;;;;;;1.20;0.50;;;;;;;;;;4999083;28;20468;-77
2023/03/25 14:49:21;;;;;;;3.78;0.40;;;;;;;;;;5012217;28;20037;-77
2023/03/25 14:51:50;;;;;;;3.25;0.80;;;;;;;;;;5018561;28;20045;-76
2023/03/25 14:54:21;;;;;;;3.58;0.50;;;;;;;;;;5029149;28;20036;-77
2023/03/25 14:56:55;;;;;;;0.82;0.50;;;;;;;;;;5028885;28;20033;-76